CDA5 weather

St. Andrews Codroy Valley Airport
St. Andrews, Newfoundland and Labrador, Canada

Public forecast

Using degrees Celsius for public forecast. Weather courtesy of forecast.io.

METAR (pilot weather report)

Closest report is Stephenville Airport, 55.4 nm (102.7 km) NNE. Retrieved 2019/09/23 05:00 UTC (51 minutes ago):

CYJT 230500Z 25011KT 15SM BKN035 OVC090 13/11 A2962 RMK SC6AC2 SLP033 DENSITY ALT 300FT

TAF (pilot weather forecast)

Forecast is more than 12 hours old.

Closest forecast is Stephenville Airport, 55.4 nm (102.7 km) NNE. Retrieved 2019/09/22 00:42 UTC (1 day ago):

TAF CYJT 222338Z 2300/2324 25010KT P6SM FEW120 FEW170 BECMG 2300/2302 23012G22KT FM230500 23012G22KT P6SM BKN050 TEMPO 2305/2311 P6SM -RA FM231100 23018G28KT P6SM -RA SCT007 OVC025 TEMPO 2311/2314 4SM -RA BR OVC007 FM231400 24020G35KT 2SM -RA BR OVC005 PROB30 2314/2317 3/4SM -RA -DZ BR OVC003 FM231700 24015G25KT 1SM -DZ BR OVC005 FM232000 25015G25KT P6SM BKN010 FM232300 26010G20KT P6SM BKN020 RMK NXT FCST BY 230600Z